sensor_id;sensor_type;location;lat;lon;timestamp;P1;durP1;ratioP1;P2;durP2;ratioP2
76626;SDS011;65519;53.230;10.390;2023-09-12T00:00:05;16.75;;;10.43;;
76626;SDS011;65519;53.230;10.390;2023-09-12T00:02:37;14.52;;;9.13;;
76626;SDS011;65519;53.230;10.390;2023-09-12T00:05:03;18.58;;;9.15;;
76626;SDS011;65519;53.230;10.390;2023-09-12T00:07:29;15.50;;;9.68;;
76626;SDS011;65519;53.230;10.390;2023-09-12T00:09:55;13.73;;;9.65;;
76626;SDS011;65519;53.230;10.390;2023-09-12T00:12:22;22.27;;;10.23;;
76626;SDS011;65519;53.230;10.390;2023-09-12T00:14:49;19.08;;;9.98;;
76626;SDS011;65519;53.230;10.390;2023-09-12T00:17:14;17.00;;;10.43;;
76626;SDS011;65519;53.230;10.390;2023-09-12T00:19:40;16.60;;;10.07;;
76626;SDS011;65519;53.230;10.390;2023-09-12T00:22:05;16.38;;;9.73;;
76626;SDS011;65519;53.230;10.390;2023-09-12T00:24:31;19.60;;;9.82;;
76626;SDS011;65519;53.230;10.390;2023-09-12T00:26:56;16.80;;;9.57;;
76626;SDS011;65519;53.230;10.390;2023-09-12T00:29:21;18.85;;;10.55;;
76626;SDS011;65519;53.230;10.390;2023-09-12T00:31:47;18.98;;;10.77;;
76626;SDS011;65519;53.230;10.390;2023-09-12T00:34:16;20.48;;;10.18;;
76626;SDS011;65519;53.230;10.390;2023-09-12T00:36:42;20.65;;;10.63;;
76626;SDS011;65519;53.230;10.390;2023-09-12T00:39:07;17.70;;;10.60;;
76626;SDS011;65519;53.230;10.390;2023-09-12T00:41:33;19.02;;;11.57;;
76626;SDS011;65519;53.230;10.390;2023-09-12T00:43:58;19.92;;;10.65;;
76626;SDS011;65519;53.230;10.390;2023-09-12T00:46:24;20.23;;;10.75;;
76626;SDS011;65519;53.230;10.390;2023-09-12T00:48:50;15.40;;;10.35;;
76626;SDS011;65519;53.230;10.390;2023-09-12T00:51:18;17.00;;;10.57;;
76626;SDS011;65519;53.230;10.390;2023-09-12T00:53:46;14.23;;;9.73;;
76626;SDS011;65519;53.230;10.390;2023-09-12T00:56:12;15.60;;;9.85;;
76626;SDS011;65519;53.230;10.390;2023-09-12T00:58:38;17.15;;;11.70;;
76626;SDS011;65519;53.230;10.390;2023-09-12T01:01:03;15.63;;;10.13;;
76626;SDS011;65519;53.230;10.390;2023-09-12T01:03:30;15.77;;;9.90;;
76626;SDS011;65519;53.230;10.390;2023-09-12T01:05:57;17.52;;;11.32;;
76626;SDS011;65519;53.230;10.390;2023-09-12T01:08:25;17.20;;;11.50;;
76626;SDS011;65519;53.230;10.390;2023-09-12T01:10:51;18.65;;;11.90;;
76626;SDS011;65519;53.230;10.390;2023-09-12T01:13:18;18.75;;;11.40;;
76626;SDS011;65519;53.230;10.390;2023-09-12T01:15:44;21.00;;;12.68;;
76626;SDS011;65519;53.230;10.390;2023-09-12T01:18:09;20.40;;;12.40;;
76626;SDS011;65519;53.230;10.390;2023-09-12T01:20:36;23.63;;;12.75;;
76626;SDS011;65519;53.230;10.390;2023-09-12T01:28:49;21.65;;;13.30;;
76626;SDS011;65519;53.230;10.390;2023-09-12T01:31:16;21.42;;;13.45;;
76626;SDS011;65519;53.230;10.390;2023-09-12T01:33:42;25.67;;;13.82;;
76626;SDS011;65519;53.230;10.390;2023-09-12T01:36:10;22.42;;;14.18;;
76626;SDS011;65519;53.230;10.390;2023-09-12T01:38:36;28.02;;;15.02;;
76626;SDS011;65519;53.230;10.390;2023-09-12T01:41:02;27.33;;;14.77;;
76626;SDS011;65519;53.230;10.390;2023-09-12T01:43:28;24.88;;;14.90;;
76626;SDS011;65519;53.230;10.390;2023-09-12T01:45:57;22.40;;;14.35;;
76626;SDS011;65519;53.230;10.390;2023-09-12T01:48:26;20.73;;;14.25;;
76626;SDS011;65519;53.230;10.390;2023-09-12T01:51:00;24.65;;;14.80;;
76626;SDS011;65519;53.230;10.390;2023-09-12T01:53:27;23.52;;;15.52;;
76626;SDS011;65519;53.230;10.390;2023-09-12T01:55:54;26.52;;;16.40;;
76626;SDS011;65519;53.230;10.390;2023-09-12T01:58:22;29.67;;;16.42;;
76626;SDS011;65519;53.230;10.390;2023-09-12T02:00:50;28.67;;;17.27;;
76626;SDS011;65519;53.230;10.390;2023-09-12T02:03:15;27.98;;;16.77;;
76626;SDS011;65519;53.230;10.390;2023-09-12T02:05:41;27.08;;;15.98;;
76626;SDS011;65519;53.230;10.390;2023-09-12T02:08:06;26.23;;;16.83;;
76626;SDS011;65519;53.230;10.390;2023-09-12T02:12:59;24.80;;;16.37;;
76626;SDS011;65519;53.230;10.390;2023-09-12T02:15:24;30.83;;;17.23;;
76626;SDS011;65519;53.230;10.390;2023-09-12T02:17:50;27.67;;;16.30;;
76626;SDS011;65519;53.230;10.390;2023-09-12T02:20:16;29.08;;;17.25;;
76626;SDS011;65519;53.230;10.390;2023-09-12T02:22:42;34.03;;;17.90;;
76626;SDS011;65519;53.230;10.390;2023-09-12T02:25:07;35.85;;;19.73;;
76626;SDS011;65519;53.230;10.390;2023-09-12T02:27:34;36.65;;;20.48;;
76626;SDS011;65519;53.230;10.390;2023-09-12T02:29:59;33.72;;;19.70;;
76626;SDS011;65519;53.230;10.390;2023-09-12T02:32:25;30.10;;;17.88;;
76626;SDS011;65519;53.230;10.390;2023-09-12T02:34:51;27.75;;;17.45;;
76626;SDS011;65519;53.230;10.390;2023-09-12T02:37:18;35.97;;;17.83;;
76626;SDS011;65519;53.230;10.390;2023-09-12T02:39:44;24.75;;;16.02;;
76626;SDS011;65519;53.230;10.390;2023-09-12T02:42:09;32.85;;;17.55;;
76626;SDS011;65519;53.230;10.390;2023-09-12T02:44:35;25.95;;;15.70;;
76626;SDS011;65519;53.230;10.390;2023-09-12T02:47:01;26.52;;;16.02;;
76626;SDS011;65519;53.230;10.390;2023-09-12T02:49:28;27.52;;;16.58;;
76626;SDS011;65519;53.230;10.390;2023-09-12T02:51:53;24.45;;;15.60;;
76626;SDS011;65519;53.230;10.390;2023-09-12T02:54:19;22.65;;;14.85;;
76626;SDS011;65519;53.230;10.390;2023-09-12T02:56:44;22.90;;;14.25;;
76626;SDS011;65519;53.230;10.390;2023-09-12T02:59:09;23.98;;;15.68;;
76626;SDS011;65519;53.230;10.390;2023-09-12T03:01:35;21.85;;;14.90;;
76626;SDS011;65519;53.230;10.390;2023-09-12T03:04:00;22.30;;;15.52;;
76626;SDS011;65519;53.230;10.390;2023-09-12T03:06:26;29.15;;;15.93;;
76626;SDS011;65519;53.230;10.390;2023-09-12T03:08:54;24.45;;;15.95;;
76626;SDS011;65519;53.230;10.390;2023-09-12T03:11:20;31.17;;;16.38;;
76626;SDS011;65519;53.230;10.390;2023-09-12T03:13:45;25.33;;;16.23;;
76626;SDS011;65519;53.230;10.390;2023-09-12T03:16:12;26.95;;;16.70;;
76626;SDS011;65519;53.230;10.390;2023-09-12T03:18:38;28.05;;;15.63;;
76626;SDS011;65519;53.230;10.390;2023-09-12T03:21:04;27.38;;;15.68;;
76626;SDS011;65519;53.230;10.390;2023-09-12T03:23:30;29.60;;;18.38;;
76626;SDS011;65519;53.230;10.390;2023-09-12T03:25:59;29.88;;;16.67;;
76626;SDS011;65519;53.230;10.390;2023-09-12T03:28:30;31.15;;;17.92;;
76626;SDS011;65519;53.230;10.390;2023-09-12T03:33:40;30.77;;;18.83;;
76626;SDS011;65519;53.230;10.390;2023-09-12T03:36:07;34.42;;;19.60;;
76626;SDS011;65519;53.230;10.390;2023-09-12T03:38:33;34.90;;;18.33;;
76626;SDS011;65519;53.230;10.390;2023-09-12T03:40:59;37.83;;;19.95;;
76626;SDS011;65519;53.230;10.390;2023-09-12T03:43:26;32.92;;;19.23;;
76626;SDS011;65519;53.230;10.390;2023-09-12T03:45:52;33.92;;;17.55;;
76626;SDS011;65519;53.230;10.390;2023-09-12T03:48:17;33.45;;;18.67;;
76626;SDS011;65519;53.230;10.390;2023-09-12T03:50:43;32.50;;;19.40;;
76626;SDS011;65519;53.230;10.390;2023-09-12T03:53:10;32.40;;;18.88;;
76626;SDS011;65519;53.230;10.390;2023-09-12T03:55:35;34.80;;;19.50;;
76626;SDS011;65519;53.230;10.390;2023-09-12T03:58:01;30.77;;;19.00;;
76626;SDS011;65519;53.230;10.390;2023-09-12T04:00:27;33.28;;;19.90;;
76626;SDS011;65519;53.230;10.390;2023-09-12T04:02:53;33.70;;;20.13;;
76626;SDS011;65519;53.230;10.390;2023-09-12T04:05:19;32.58;;;19.13;;
76626;SDS011;65519;53.230;10.390;2023-09-12T04:07:44;36.10;;;19.13;;
76626;SDS011;65519;53.230;10.390;2023-09-12T04:10:10;33.22;;;18.13;;
76626;SDS011;65519;53.230;10.390;2023-09-12T04:12:35;31.60;;;19.35;;
76626;SDS011;65519;53.230;10.390;2023-09-12T04:15:01;30.08;;;19.02;;
76626;SDS011;65519;53.230;10.390;2023-09-12T04:17:26;37.03;;;19.75;;
76626;SDS011;65519;53.230;10.390;2023-09-12T04:19:52;31.35;;;19.35;;
76626;SDS011;65519;53.230;10.390;2023-09-12T04:22:18;37.15;;;19.70;;
76626;SDS011;65519;53.230;10.390;2023-09-12T04:24:43;34.30;;;20.52;;
76626;SDS011;65519;53.230;10.390;2023-09-12T04:27:08;39.17;;;19.90;;
76626;SDS011;65519;53.230;10.390;2023-09-12T04:29:34;34.92;;;20.15;;
76626;SDS011;65519;53.230;10.390;2023-09-12T04:32:01;35.75;;;21.52;;
76626;SDS011;65519;53.230;10.390;2023-09-12T04:34:28;35.45;;;21.38;;
76626;SDS011;65519;53.230;10.390;2023-09-12T04:36:54;34.80;;;19.63;;
76626;SDS011;65519;53.230;10.390;2023-09-12T04:39:20;35.83;;;20.70;;
76626;SDS011;65519;53.230;10.390;2023-09-12T04:41:46;31.60;;;18.33;;
76626;SDS011;65519;53.230;10.390;2023-09-12T04:44:11;35.05;;;20.25;;
76626;SDS011;65519;53.230;10.390;2023-09-12T04:46:37;36.38;;;18.98;;
76626;SDS011;65519;53.230;10.390;2023-09-12T04:49:03;32.95;;;20.98;;
76626;SDS011;65519;53.230;10.390;2023-09-12T04:51:29;33.25;;;20.13;;
76626;SDS011;65519;53.230;10.390;2023-09-12T04:53:55;36.38;;;21.30;;
76626;SDS011;65519;53.230;10.390;2023-09-12T04:56:21;35.45;;;20.90;;
76626;SDS011;65519;53.230;10.390;2023-09-12T04:58:49;34.95;;;21.55;;
76626;SDS011;65519;53.230;10.390;2023-09-12T05:01:15;39.70;;;20.88;;
76626;SDS011;65519;53.230;10.390;2023-09-12T05:03:42;34.90;;;19.02;;
76626;SDS011;65519;53.230;10.390;2023-09-12T05:06:09;37.33;;;21.70;;
76626;SDS011;65519;53.230;10.390;2023-09-12T05:08:35;33.78;;;20.23;;
76626;SDS011;65519;53.230;10.390;2023-09-12T05:11:01;35.10;;;21.15;;
76626;SDS011;65519;53.230;10.390;2023-09-12T05:13:28;32.30;;;19.13;;
76626;SDS011;65519;53.230;10.390;2023-09-12T05:15:53;31.15;;;19.58;;
76626;SDS011;65519;53.230;10.390;2023-09-12T05:18:19;30.73;;;18.60;;
76626;SDS011;65519;53.230;10.390;2023-09-12T05:20:45;35.15;;;20.08;;
76626;SDS011;65519;53.230;10.390;2023-09-12T05:23:10;34.33;;;19.67;;
76626;SDS011;65519;53.230;10.390;2023-09-12T05:25:36;34.83;;;19.88;;
76626;SDS011;65519;53.230;10.390;2023-09-12T05:28:01;28.48;;;17.85;;
76626;SDS011;65519;53.230;10.390;2023-09-12T05:30:28;29.88;;;18.08;;
76626;SDS011;65519;53.230;10.390;2023-09-12T05:32:53;29.35;;;17.67;;
76626;SDS011;65519;53.230;10.390;2023-09-12T05:35:19;31.27;;;19.08;;
76626;SDS011;65519;53.230;10.390;2023-09-12T05:37:44;29.75;;;18.83;;
76626;SDS011;65519;53.230;10.390;2023-09-12T05:40:10;27.45;;;17.48;;
76626;SDS011;65519;53.230;10.390;2023-09-12T05:42:36;30.65;;;18.00;;
76626;SDS011;65519;53.230;10.390;2023-09-12T05:45:01;27.63;;;17.77;;
76626;SDS011;65519;53.230;10.390;2023-09-12T05:47:27;28.55;;;18.15;;
76626;SDS011;65519;53.230;10.390;2023-09-12T05:49:53;32.85;;;18.10;;
76626;SDS011;65519;53.230;10.390;2023-09-12T05:52:19;32.40;;;18.58;;
76626;SDS011;65519;53.230;10.390;2023-09-12T05:54:45;27.75;;;17.38;;
76626;SDS011;65519;53.230;10.390;2023-09-12T05:57:10;26.85;;;17.65;;
76626;SDS011;65519;53.230;10.390;2023-09-12T05:59:37;28.52;;;17.55;;
76626;SDS011;65519;53.230;10.390;2023-09-12T06:02:04;31.95;;;17.88;;
76626;SDS011;65519;53.230;10.390;2023-09-12T06:04:34;30.42;;;18.05;;
76626;SDS011;65519;53.230;10.390;2023-09-12T06:07:01;30.98;;;19.83;;
76626;SDS011;65519;53.230;10.390;2023-09-12T06:09:27;31.92;;;17.67;;
76626;SDS011;65519;53.230;10.390;2023-09-12T06:11:53;27.42;;;16.83;;
76626;SDS011;65519;53.230;10.390;2023-09-12T06:14:19;27.08;;;17.80;;
76626;SDS011;65519;53.230;10.390;2023-09-12T06:16:44;30.90;;;18.35;;
76626;SDS011;65519;53.230;10.390;2023-09-12T06:19:10;30.02;;;18.55;;
76626;SDS011;65519;53.230;10.390;2023-09-12T06:21:35;28.33;;;17.35;;
76626;SDS011;65519;53.230;10.390;2023-09-12T06:24:08;31.83;;;17.85;;
76626;SDS011;65519;53.230;10.390;2023-09-12T06:26:36;30.63;;;17.58;;
76626;SDS011;65519;53.230;10.390;2023-09-12T06:29:01;28.30;;;17.95;;
76626;SDS011;65519;53.230;10.390;2023-09-12T06:31:27;32.65;;;19.23;;
76626;SDS011;65519;53.230;10.390;2023-09-12T06:33:53;32.33;;;18.83;;
76626;SDS011;65519;53.230;10.390;2023-09-12T06:36:19;149.50;;;82.45;;
76626;SDS011;65519;53.230;10.390;2023-09-12T06:38:44;66.30;;;36.65;;
76626;SDS011;65519;53.230;10.390;2023-09-12T06:41:10;52.35;;;30.95;;
76626;SDS011;65519;53.230;10.390;2023-09-12T06:43:35;41.70;;;24.58;;
76626;SDS011;65519;53.230;10.390;2023-09-12T06:46:00;31.13;;;18.63;;
76626;SDS011;65519;53.230;10.390;2023-09-12T06:48:26;30.95;;;19.67;;
76626;SDS011;65519;53.230;10.390;2023-09-12T06:50:53;34.20;;;20.17;;
76626;SDS011;65519;53.230;10.390;2023-09-12T06:53:19;31.05;;;18.90;;
76626;SDS011;65519;53.230;10.390;2023-09-12T06:55:45;33.25;;;19.98;;
76626;SDS011;65519;53.230;10.390;2023-09-12T06:58:10;40.40;;;20.92;;
76626;SDS011;65519;53.230;10.390;2023-09-12T07:00:37;32.15;;;19.65;;
76626;SDS011;65519;53.230;10.390;2023-09-12T07:03:02;35.47;;;20.23;;
76626;SDS011;65519;53.230;10.390;2023-09-12T07:05:28;31.48;;;19.05;;
76626;SDS011;65519;53.230;10.390;2023-09-12T07:07:54;32.15;;;18.70;;
76626;SDS011;65519;53.230;10.390;2023-09-12T07:10:19;59.53;;;35.72;;
76626;SDS011;65519;53.230;10.390;2023-09-12T07:12:45;76.38;;;39.10;;
76626;SDS011;65519;53.230;10.390;2023-09-12T07:15:10;84.25;;;46.25;;
76626;SDS011;65519;53.230;10.390;2023-09-12T07:17:35;46.40;;;25.20;;
76626;SDS011;65519;53.230;10.390;2023-09-12T07:20:01;34.85;;;20.13;;
76626;SDS011;65519;53.230;10.390;2023-09-12T07:22:27;37.38;;;20.58;;
76626;SDS011;65519;53.230;10.390;2023-09-12T07:24:52;33.60;;;19.23;;
76626;SDS011;65519;53.230;10.390;2023-09-12T07:27:18;34.90;;;19.23;;
76626;SDS011;65519;53.230;10.390;2023-09-12T07:29:43;31.70;;;17.83;;
76626;SDS011;65519;53.230;10.390;2023-09-12T07:32:08;35.17;;;21.15;;
76626;SDS011;65519;53.230;10.390;2023-09-12T07:34:34;30.90;;;19.52;;
76626;SDS011;65519;53.230;10.390;2023-09-12T07:36:59;33.90;;;19.33;;
76626;SDS011;65519;53.230;10.390;2023-09-12T07:39:25;38.55;;;20.17;;
76626;SDS011;65519;53.230;10.390;2023-09-12T07:41:51;36.15;;;20.02;;
76626;SDS011;65519;53.230;10.390;2023-09-12T07:44:16;36.17;;;20.63;;
76626;SDS011;65519;53.230;10.390;2023-09-12T07:46:42;31.80;;;19.08;;
76626;SDS011;65519;53.230;10.390;2023-09-12T07:49:08;32.67;;;18.63;;
76626;SDS011;65519;53.230;10.390;2023-09-12T07:51:34;36.25;;;19.45;;
76626;SDS011;65519;53.230;10.390;2023-09-12T07:54:00;38.92;;;20.73;;
76626;SDS011;65519;53.230;10.390;2023-09-12T07:56:26;35.90;;;19.45;;
76626;SDS011;65519;53.230;10.390;2023-09-12T07:58:51;34.92;;;19.65;;
76626;SDS011;65519;53.230;10.390;2023-09-12T08:01:17;32.75;;;18.85;;
76626;SDS011;65519;53.230;10.390;2023-09-12T08:03:42;34.40;;;20.48;;
76626;SDS011;65519;53.230;10.390;2023-09-12T08:06:08;34.03;;;19.85;;
76626;SDS011;65519;53.230;10.390;2023-09-12T08:08:34;39.60;;;21.10;;
76626;SDS011;65519;53.230;10.390;2023-09-12T08:11:00;37.25;;;21.00;;
76626;SDS011;65519;53.230;10.390;2023-09-12T08:13:26;38.40;;;19.80;;
76626;SDS011;65519;53.230;10.390;2023-09-12T08:15:53;35.42;;;19.58;;
76626;SDS011;65519;53.230;10.390;2023-09-12T08:18:18;38.75;;;21.65;;
76626;SDS011;65519;53.230;10.390;2023-09-12T08:20:44;33.53;;;19.58;;
76626;SDS011;65519;53.230;10.390;2023-09-12T08:23:09;36.13;;;20.58;;
76626;SDS011;65519;53.230;10.390;2023-09-12T08:25:35;37.40;;;20.02;;
76626;SDS011;65519;53.230;10.390;2023-09-12T08:28:00;33.65;;;20.30;;
76626;SDS011;65519;53.230;10.390;2023-09-12T08:30:26;36.45;;;20.83;;
76626;SDS011;65519;53.230;10.390;2023-09-12T08:32:54;35.03;;;19.40;;
76626;SDS011;65519;53.230;10.390;2023-09-12T08:35:21;38.10;;;19.92;;
76626;SDS011;65519;53.230;10.390;2023-09-12T08:37:46;39.92;;;19.55;;
76626;SDS011;65519;53.230;10.390;2023-09-12T08:40:11;38.05;;;19.95;;
76626;SDS011;65519;53.230;10.390;2023-09-12T08:42:41;37.15;;;20.55;;
76626;SDS011;65519;53.230;10.390;2023-09-12T08:45:09;33.67;;;19.98;;
76626;SDS011;65519;53.230;10.390;2023-09-12T08:47:38;37.55;;;19.23;;
76626;SDS011;65519;53.230;10.390;2023-09-12T08:50:07;58.78;;;32.47;;
76626;SDS011;65519;53.230;10.390;2023-09-12T08:52:35;89.03;;;45.38;;
76626;SDS011;65519;53.230;10.390;2023-09-12T08:55:00;38.25;;;20.38;;
76626;SDS011;65519;53.230;10.390;2023-09-12T08:57:26;44.20;;;23.95;;
76626;SDS011;65519;53.230;10.390;2023-09-12T08:59:52;30.75;;;18.50;;
76626;SDS011;65519;53.230;10.390;2023-09-12T09:02:19;33.08;;;17.85;;
76626;SDS011;65519;53.230;10.390;2023-09-12T09:04:45;26.27;;;14.80;;
76626;SDS011;65519;53.230;10.390;2023-09-12T09:07:11;23.50;;;14.93;;
76626;SDS011;65519;53.230;10.390;2023-09-12T09:09:38;21.15;;;14.45;;
76626;SDS011;65519;53.230;10.390;2023-09-12T09:12:08;24.05;;;14.25;;
76626;SDS011;65519;53.230;10.390;2023-09-12T09:14:35;27.80;;;16.13;;
76626;SDS011;65519;53.230;10.390;2023-09-12T09:17:01;25.90;;;14.65;;
76626;SDS011;65519;53.230;10.390;2023-09-12T09:19:39;25.83;;;15.13;;
76626;SDS011;65519;53.230;10.390;2023-09-12T09:22:07;24.25;;;14.50;;
76626;SDS011;65519;53.230;10.390;2023-09-12T09:24:32;24.85;;;14.82;;
76626;SDS011;65519;53.230;10.390;2023-09-12T09:26:58;24.60;;;15.18;;
76626;SDS011;65519;53.230;10.390;2023-09-12T09:29:25;26.60;;;14.82;;
76626;SDS011;65519;53.230;10.390;2023-09-12T09:31:51;54.55;;;32.85;;
76626;SDS011;65519;53.230;10.390;2023-09-12T09:34:18;30.38;;;18.83;;
76626;SDS011;65519;53.230;10.390;2023-09-12T09:39:24;23.80;;;14.43;;
76626;SDS011;65519;53.230;10.390;2023-09-12T09:44:18;23.27;;;14.00;;
76626;SDS011;65519;53.230;10.390;2023-09-12T09:46:46;20.17;;;12.98;;
76626;SDS011;65519;53.230;10.390;2023-09-12T09:49:16;19.10;;;12.73;;
76626;SDS011;65519;53.230;10.390;2023-09-12T09:51:44;18.58;;;11.93;;
76626;SDS011;65519;53.230;10.390;2023-09-12T09:54:13;17.88;;;12.10;;
76626;SDS011;65519;53.230;10.390;2023-09-12T09:56:46;17.95;;;11.38;;
76626;SDS011;65519;53.230;10.390;2023-09-12T09:59:16;18.55;;;11.82;;
76626;SDS011;65519;53.230;10.390;2023-09-12T10:01:44;18.00;;;10.85;;
76626;SDS011;65519;53.230;10.390;2023-09-12T10:04:10;16.77;;;10.90;;
76626;SDS011;65519;53.230;10.390;2023-09-12T10:06:36;16.85;;;11.05;;
76626;SDS011;65519;53.230;10.390;2023-09-12T10:11:37;16.30;;;9.98;;
76626;SDS011;65519;53.230;10.390;2023-09-12T10:14:04;62.55;;;35.88;;
76626;SDS011;65519;53.230;10.390;2023-09-12T10:16:46;26.20;;;17.25;;
76626;SDS011;65519;53.230;10.390;2023-09-12T10:19:15;20.85;;;13.52;;
76626;SDS011;65519;53.230;10.390;2023-09-12T10:21:45;25.23;;;17.30;;
76626;SDS011;65519;53.230;10.390;2023-09-12T10:24:14;23.38;;;15.23;;
76626;SDS011;65519;53.230;10.390;2023-09-12T10:26:41;15.10;;;9.13;;
76626;SDS011;65519;53.230;10.390;2023-09-12T10:29:12;15.82;;;9.77;;
76626;SDS011;65519;53.230;10.390;2023-09-12T10:31:39;14.65;;;9.35;;
76626;SDS011;65519;53.230;10.390;2023-09-12T10:34:05;14.48;;;9.65;;
76626;SDS011;65519;53.230;10.390;2023-09-12T10:36:34;12.55;;;8.65;;
76626;SDS011;65519;53.230;10.390;2023-09-12T10:39:03;12.55;;;9.10;;
76626;SDS011;65519;53.230;10.390;2023-09-12T10:41:30;16.08;;;10.35;;
76626;SDS011;65519;53.230;10.390;2023-09-12T10:43:57;19.13;;;10.43;;
76626;SDS011;65519;53.230;10.390;2023-09-12T10:46:24;16.63;;;10.38;;
76626;SDS011;65519;53.230;10.390;2023-09-12T10:48:49;15.30;;;10.07;;
76626;SDS011;65519;53.230;10.390;2023-09-12T10:51:16;15.45;;;9.95;;
76626;SDS011;65519;53.230;10.390;2023-09-12T10:53:46;18.13;;;11.77;;
76626;SDS011;65519;53.230;10.390;2023-09-12T10:56:19;24.05;;;12.77;;
76626;SDS011;65519;53.230;10.390;2023-09-12T11:01:30;19.73;;;11.55;;
76626;SDS011;65519;53.230;10.390;2023-09-12T11:03:56;29.17;;;16.50;;
76626;SDS011;65519;53.230;10.390;2023-09-12T11:06:23;53.33;;;27.65;;
76626;SDS011;65519;53.230;10.390;2023-09-12T11:11:38;21.75;;;11.52;;
76626;SDS011;65519;53.230;10.390;2023-09-12T11:14:04;23.27;;;12.82;;
76626;SDS011;65519;53.230;10.390;2023-09-12T11:16:31;20.02;;;11.90;;
76626;SDS011;65519;53.230;10.390;2023-09-12T11:21:42;18.23;;;10.82;;
76626;SDS011;65519;53.230;10.390;2023-09-12T11:24:09;19.98;;;10.55;;
76626;SDS011;65519;53.230;10.390;2023-09-12T11:26:34;19.20;;;10.73;;
76626;SDS011;65519;53.230;10.390;2023-09-12T11:29:18;24.77;;;12.90;;
76626;SDS011;65519;53.230;10.390;2023-09-12T11:31:51;18.67;;;11.07;;
76626;SDS011;65519;53.230;10.390;2023-09-12T11:34:19;21.52;;;12.82;;
76626;SDS011;65519;53.230;10.390;2023-09-12T11:36:45;22.50;;;14.68;;
76626;SDS011;65519;53.230;10.390;2023-09-12T11:39:24;31.48;;;17.55;;
76626;SDS011;65519;53.230;10.390;2023-09-12T11:42:00;24.58;;;10.77;;
76626;SDS011;65519;53.230;10.390;2023-09-12T11:44:27;16.40;;;9.32;;
76626;SDS011;65519;53.230;10.390;2023-09-12T11:46:53;15.25;;;9.32;;
76626;SDS011;65519;53.230;10.390;2023-09-12T11:49:20;15.60;;;9.48;;
76626;SDS011;65519;53.230;10.390;2023-09-12T11:51:46;16.58;;;10.18;;
76626;SDS011;65519;53.230;10.390;2023-09-12T11:54:25;14.55;;;9.95;;
76626;SDS011;65519;53.230;10.390;2023-09-12T11:56:51;16.75;;;9.70;;
76626;SDS011;65519;53.230;10.390;2023-09-12T11:59:25;18.88;;;10.10;;
76626;SDS011;65519;53.230;10.390;2023-09-12T12:01:52;13.88;;;8.93;;
76626;SDS011;65519;53.230;10.390;2023-09-12T12:04:22;12.85;;;8.65;;
76626;SDS011;65519;53.230;10.390;2023-09-12T12:06:50;16.67;;;9.05;;
76626;SDS011;65519;53.230;10.390;2023-09-12T12:09:17;13.77;;;8.93;;
76626;SDS011;65519;53.230;10.390;2023-09-12T12:11:45;15.95;;;8.63;;
76626;SDS011;65519;53.230;10.390;2023-09-12T12:14:14;15.13;;;8.43;;
76626;SDS011;65519;53.230;10.390;2023-09-12T12:16:41;13.85;;;8.50;;
76626;SDS011;65519;53.230;10.390;2023-09-12T12:19:09;13.70;;;8.90;;
76626;SDS011;65519;53.230;10.390;2023-09-12T12:21:43;13.73;;;8.68;;
76626;SDS011;65519;53.230;10.390;2023-09-12T12:24:12;30.27;;;17.27;;
76626;SDS011;65519;53.230;10.390;2023-09-12T12:26:43;13.65;;;9.30;;
76626;SDS011;65519;53.230;10.390;2023-09-12T12:29:09;15.50;;;9.80;;
76626;SDS011;65519;53.230;10.390;2023-09-12T12:31:36;16.83;;;11.15;;
76626;SDS011;65519;53.230;10.390;2023-09-12T12:34:02;15.35;;;8.85;;
76626;SDS011;65519;53.230;10.390;2023-09-12T12:36:28;12.73;;;7.97;;
76626;SDS011;65519;53.230;10.390;2023-09-12T12:38:54;12.77;;;8.32;;
76626;SDS011;65519;53.230;10.390;2023-09-12T12:43:49;10.48;;;7.13;;
76626;SDS011;65519;53.230;10.390;2023-09-12T12:46:18;10.82;;;8.00;;
76626;SDS011;65519;53.230;10.390;2023-09-12T12:48:47;11.85;;;7.57;;
76626;SDS011;65519;53.230;10.390;2023-09-12T12:53:48;12.63;;;7.78;;
76626;SDS011;65519;53.230;10.390;2023-09-12T12:58:54;13.75;;;7.97;;
76626;SDS011;65519;53.230;10.390;2023-09-12T13:01:22;22.27;;;12.18;;
76626;SDS011;65519;53.230;10.390;2023-09-12T13:03:47;11.85;;;7.50;;
76626;SDS011;65519;53.230;10.390;2023-09-12T13:06:15;28.80;;;18.15;;
76626;SDS011;65519;53.230;10.390;2023-09-12T13:08:43;14.68;;;9.30;;
76626;SDS011;65519;53.230;10.390;2023-09-12T13:11:10;12.07;;;7.18;;
76626;SDS011;65519;53.230;10.390;2023-09-12T13:13:37;13.95;;;6.97;;
76626;SDS011;65519;53.230;10.390;2023-09-12T13:16:04;14.70;;;8.38;;
76626;SDS011;65519;53.230;10.390;2023-09-12T13:18:31;15.82;;;7.68;;
76626;SDS011;65519;53.230;10.390;2023-09-12T13:20:57;10.70;;;7.45;;
76626;SDS011;65519;53.230;10.390;2023-09-12T13:23:23;13.05;;;7.57;;
76626;SDS011;65519;53.230;10.390;2023-09-12T13:25:50;12.65;;;6.95;;
76626;SDS011;65519;53.230;10.390;2023-09-12T13:28:16;10.35;;;6.90;;
76626;SDS011;65519;53.230;10.390;2023-09-12T13:30:42;11.38;;;7.55;;
76626;SDS011;65519;53.230;10.390;2023-09-12T13:33:07;12.50;;;8.82;;
76626;SDS011;65519;53.230;10.390;2023-09-12T13:35:33;12.02;;;7.90;;
76626;SDS011;65519;53.230;10.390;2023-09-12T13:37:58;11.40;;;7.68;;
76626;SDS011;65519;53.230;10.390;2023-09-12T13:40:23;11.63;;;7.38;;
76626;SDS011;65519;53.230;10.390;2023-09-12T13:42:49;11.30;;;6.78;;
76626;SDS011;65519;53.230;10.390;2023-09-12T13:45:14;8.77;;;6.90;;
76626;SDS011;65519;53.230;10.390;2023-09-12T13:47:40;10.27;;;7.32;;
76626;SDS011;65519;53.230;10.390;2023-09-12T13:50:08;10.95;;;7.15;;
76626;SDS011;65519;53.230;10.390;2023-09-12T13:52:33;12.18;;;7.47;;
76626;SDS011;65519;53.230;10.390;2023-09-12T13:54:59;8.27;;;6.25;;
76626;SDS011;65519;53.230;10.390;2023-09-12T13:57:28;9.43;;;6.63;;
76626;SDS011;65519;53.230;10.390;2023-09-12T13:59:54;8.35;;;5.85;;
76626;SDS011;65519;53.230;10.390;2023-09-12T14:02:19;13.85;;;7.00;;
76626;SDS011;65519;53.230;10.390;2023-09-12T14:04:44;9.35;;;5.40;;
76626;SDS011;65519;53.230;10.390;2023-09-12T14:07:10;6.93;;;4.90;;
76626;SDS011;65519;53.230;10.390;2023-09-12T14:09:36;7.25;;;5.30;;
76626;SDS011;65519;53.230;10.390;2023-09-12T14:12:01;6.85;;;5.53;;
76626;SDS011;65519;53.230;10.390;2023-09-12T14:14:28;6.95;;;4.82;;
76626;SDS011;65519;53.230;10.390;2023-09-12T14:16:53;6.47;;;5.32;;
76626;SDS011;65519;53.230;10.390;2023-09-12T14:19:19;6.10;;;4.80;;
76626;SDS011;65519;53.230;10.390;2023-09-12T14:21:44;7.35;;;4.93;;
76626;SDS011;65519;53.230;10.390;2023-09-12T14:24:10;10.75;;;5.45;;
76626;SDS011;65519;53.230;10.390;2023-09-12T14:26:35;9.32;;;4.93;;
76626;SDS011;65519;53.230;10.390;2023-09-12T14:29:01;7.90;;;5.45;;
76626;SDS011;65519;53.230;10.390;2023-09-12T14:31:26;7.70;;;5.25;;
76626;SDS011;65519;53.230;10.390;2023-09-12T14:33:51;7.22;;;4.75;;
76626;SDS011;65519;53.230;10.390;2023-09-12T14:36:17;6.97;;;5.03;;
76626;SDS011;65519;53.230;10.390;2023-09-12T14:38:44;9.13;;;5.97;;
76626;SDS011;65519;53.230;10.390;2023-09-12T14:41:12;7.35;;;4.93;;
76626;SDS011;65519;53.230;10.390;2023-09-12T14:43:38;8.20;;;5.32;;